KACK/ACK METAR and TAF weather

Enter ICAO airport designator
Station Type Date Time Source
KACK METAR 2021/01/16 01:53 UTC NOAA

KACK 160153Z AUTO 10005KT 10SM CLR 03/00 A3007 RMK AO2 SLP184 T00330000


Station Type Date Time Source
KACK Decoded METAR 2021/01/16 01:53 UTC NOAA

NANTUCKET MEMORIAL AIRPORT, MA, United States (KACK) 41-15N 70-04W 16M
Jan 15, 2021 - 08:53 PM EST / 2021.01.16 0153 UTC
Wind: from the E (100 degrees) at 6 MPH (5 KT):0
Visibility: 10 mile(s):0
Sky conditions: clear
Temperature: 37.9 F (3.3 C)
Dew Point: 32.0 F (0.0 C)
Relative Humidity: 78%
Pressure (altimeter): 30.07 in. Hg (1018 hPa)
ob: KACK 160153Z AUTO 10005KT 10SM CLR 03/00 A3007 RMK AO2 SLP184 T00330000
cycle: 2

Station Type Date Time Source
KACK TAF 2021/01/15 21:21 UTC NOAA

TAF
AMD KACK 152119Z 1521/1618 07008KT P6SM SCT035 OVC250
FM160000 08011KT P6SM BKN025 OVC250
FM160600 11018G29KT P6SM BKN045
FM161000 11026G36KT P6SM VCSH OVC025
FM161200 11027G35KT 5SM -RA OVC020
FM161400 12024G35KT 3SM RA BR OVC010
FM161600 14020G30KT 2SM RA BR OVC008

Example: see airport list